createdAt,value
2019-05-19T00:00:48.584Z,19.10
2019-05-19T00:03:17.262Z,19.10
2019-05-19T00:05:46.086Z,19.00
2019-05-19T00:08:14.848Z,19.00
2019-05-19T00:10:43.652Z,18.90
2019-05-19T00:13:12.401Z,18.90
2019-05-19T00:15:41.137Z,18.90
2019-05-19T00:18:09.886Z,18.90
2019-05-19T00:20:38.671Z,18.80
2019-05-19T00:23:07.374Z,18.70
2019-05-19T00:25:36.191Z,18.70
2019-05-19T00:28:04.949Z,18.70
2019-05-19T00:30:33.694Z,18.70
2019-05-19T00:33:02.525Z,18.60
2019-05-19T00:35:31.357Z,18.60
2019-05-19T00:38:00.214Z,18.60
2019-05-19T00:40:28.973Z,18.50
2019-05-19T00:42:57.774Z,18.50
2019-05-19T00:45:26.532Z,18.40
2019-05-19T00:47:55.340Z,18.40
2019-05-19T00:50:24.093Z,18.40
2019-05-19T00:52:52.899Z,18.30
2019-05-19T00:55:21.740Z,18.30
2019-05-19T00:57:51.167Z,18.20
2019-05-19T01:00:19.858Z,18.20
2019-05-19T01:02:48.646Z,18.20
2019-05-19T01:05:20.198Z,18.20
2019-05-19T01:07:47.766Z,18.10
2019-05-19T01:10:16.509Z,18.10
2019-05-19T01:12:45.249Z,18.10
2019-05-19T01:15:14.398Z,18.00
2019-05-19T01:17:43.142Z,18.00
2019-05-19T01:20:12.070Z,18.00
2019-05-19T01:22:40.900Z,17.90
2019-05-19T01:25:09.946Z,17.90
2019-05-19T01:27:38.741Z,17.80
2019-05-19T01:30:11.233Z,17.80
2019-05-19T01:32:39.976Z,17.80
2019-05-19T01:35:08.822Z,17.70
2019-05-19T01:37:37.561Z,17.70
2019-05-19T01:40:08.330Z,17.60
2019-05-19T01:42:37.235Z,17.60
2019-05-19T01:45:10.131Z,17.60
2019-05-19T01:47:38.950Z,17.50
2019-05-19T01:50:17.437Z,17.40
2019-05-19T01:52:39.657Z,17.40
2019-05-19T01:55:08.554Z,17.40
2019-05-19T01:57:37.321Z,17.40
2019-05-19T02:00:07.650Z,17.30
2019-05-19T02:02:36.374Z,17.40
2019-05-19T02:05:06.594Z,17.30
2019-05-19T02:07:35.475Z,17.40
2019-05-19T02:10:06.859Z,17.30
2019-05-19T02:12:35.607Z,17.20
2019-05-19T02:15:06.420Z,17.20
2019-05-19T02:17:35.158Z,17.20
2019-05-19T02:20:05.649Z,17.10
2019-05-19T02:22:34.458Z,17.10
2019-05-19T02:25:03.472Z,17.20
2019-05-19T02:27:32.149Z,17.20
2019-05-19T02:30:00.962Z,17.20
2019-05-19T02:32:29.629Z,17.20
2019-05-19T02:34:58.459Z,17.20
2019-05-19T02:37:27.204Z,17.20
2019-05-19T02:39:56.049Z,17.20
2019-05-19T02:42:28.306Z,17.20
2019-05-19T02:44:59.178Z,17.20
2019-05-19T02:47:28.392Z,17.20
2019-05-19T02:49:58.314Z,17.30
2019-05-19T02:52:28.143Z,17.30
2019-05-19T02:54:57.165Z,17.30
2019-05-19T02:57:26.105Z,17.30
2019-05-19T02:59:55.316Z,17.30
2019-05-19T03:02:24.036Z,17.30
2019-05-19T03:04:52.850Z,17.30
2019-05-19T03:07:21.595Z,17.30
2019-05-19T03:09:50.365Z,17.40
2019-05-19T03:12:19.178Z,17.40
2019-05-19T03:14:47.896Z,17.50
2019-05-19T03:17:16.758Z,17.50
2019-05-19T03:19:45.426Z,17.60
2019-05-19T03:22:14.162Z,17.60
2019-05-19T03:24:42.852Z,17.60
2019-05-19T03:27:11.675Z,17.70
2019-05-19T03:29:41.994Z,17.70
2019-05-19T03:32:13.158Z,17.70
2019-05-19T03:34:42.219Z,17.70
2019-05-19T03:37:10.967Z,17.80
2019-05-19T03:39:39.730Z,17.80
2019-05-19T03:42:10.597Z,17.90
2019-05-19T03:44:38.857Z,17.90
2019-05-19T03:47:07.631Z,17.90
2019-05-19T03:49:36.275Z,17.90
2019-05-19T03:52:05.130Z,18.00
2019-05-19T03:54:33.806Z,17.90
2019-05-19T03:57:02.560Z,18.00
2019-05-19T03:59:31.230Z,18.00
2019-05-19T04:01:59.978Z,18.10
2019-05-19T04:04:28.726Z,18.30
2019-05-19T04:06:57.492Z,18.30
2019-05-19T04:09:26.592Z,18.30
2019-05-19T04:11:55.325Z,18.30
2019-05-19T04:14:24.078Z,18.50
2019-05-19T04:16:52.831Z,18.60
2019-05-19T04:19:21.562Z,18.70
2019-05-19T04:21:50.312Z,18.80
2019-05-19T04:24:19.064Z,18.80
2019-05-19T04:26:47.804Z,18.80
2019-05-19T04:29:16.476Z,19.00
2019-05-19T04:31:45.168Z,19.00
2019-05-19T04:34:13.891Z,19.10
2019-05-19T04:36:42.572Z,19.10
2019-05-19T04:39:11.303Z,19.30
2019-05-19T04:41:40.431Z,19.40
2019-05-19T04:44:09.307Z,19.40
2019-05-19T04:46:37.979Z,19.50
2019-05-19T04:49:06.811Z,19.60
2019-05-19T04:51:35.506Z,19.70
2019-05-19T04:54:04.314Z,19.80
2019-05-19T04:56:33.063Z,19.80
2019-05-19T04:59:01.817Z,19.80
2019-05-19T05:01:30.502Z,19.80
2019-05-19T05:03:59.252Z,19.80
2019-05-19T05:06:27.995Z,19.90
2019-05-19T05:08:56.748Z,19.90
2019-05-19T05:11:25.497Z,19.90
2019-05-19T05:13:54.313Z,20.00
2019-05-19T05:16:22.980Z,20.10
2019-05-19T05:18:51.746Z,20.20
2019-05-19T05:21:20.387Z,20.20
2019-05-19T05:23:49.211Z,20.20
2019-05-19T05:26:17.896Z,20.30
2019-05-19T05:28:46.626Z,20.30
2019-05-19T05:31:15.711Z,20.30
2019-05-19T05:33:44.523Z,20.50
2019-05-19T05:36:13.201Z,20.40
2019-05-19T05:38:41.932Z,20.40
2019-05-19T05:41:10.622Z,20.50
2019-05-19T05:43:39.375Z,20.50
2019-05-19T05:46:08.128Z,20.50
2019-05-19T05:48:36.945Z,20.50
2019-05-19T05:51:05.733Z,20.60
2019-05-19T05:53:34.406Z,20.70
2019-05-19T05:56:03.147Z,20.80
2019-05-19T05:58:31.825Z,20.80
2019-05-19T06:01:00.559Z,20.80
2019-05-19T06:03:29.321Z,20.90
2019-05-19T06:05:58.138Z,21.00
2019-05-19T06:08:26.982Z,21.00
2019-05-19T06:10:55.791Z,21.10
2019-05-19T06:13:24.487Z,21.20
2019-05-19T06:15:53.286Z,21.20
2019-05-19T06:18:22.036Z,21.30
2019-05-19T06:20:50.818Z,21.40
2019-05-19T06:23:19.488Z,21.50
2019-05-19T06:25:48.323Z,21.60
2019-05-19T06:28:17.130Z,21.60
2019-05-19T06:30:45.877Z,21.60
2019-05-19T06:33:14.567Z,21.70
2019-05-19T06:35:43.381Z,21.70
2019-05-19T06:38:12.192Z,21.80
2019-05-19T06:40:40.954Z,21.80
2019-05-19T06:43:09.692Z,21.90
2019-05-19T06:45:38.457Z,21.90
2019-05-19T06:48:07.204Z,22.00
2019-05-19T06:50:39.923Z,22.00
2019-05-19T06:53:14.132Z,22.10
2019-05-19T06:55:36.892Z,22.20
2019-05-19T06:58:05.639Z,22.30
2019-05-19T07:00:34.474Z,22.20
2019-05-19T07:03:03.286Z,22.30
2019-05-19T07:05:32.027Z,22.30
2019-05-19T07:08:00.839Z,22.20
2019-05-19T07:10:29.520Z,22.20
2019-05-19T07:12:58.294Z,22.30
2019-05-19T07:15:27.018Z,22.40
2019-05-19T07:17:55.762Z,22.40
2019-05-19T07:20:24.532Z,22.50
2019-05-19T07:22:53.261Z,22.50
2019-05-19T07:25:21.922Z,22.50
2019-05-19T07:27:50.681Z,22.60
2019-05-19T07:30:19.591Z,22.70
2019-05-19T07:32:48.421Z,22.70
2019-05-19T07:35:17.093Z,22.80
2019-05-19T07:37:45.846Z,22.80
2019-05-19T07:40:14.699Z,22.80
2019-05-19T07:42:43.446Z,22.80
2019-05-19T07:45:13.486Z,22.90
2019-05-19T07:47:42.227Z,23.00
2019-05-19T07:50:11.023Z,23.00
2019-05-19T07:52:39.823Z,23.10
2019-05-19T07:55:08.715Z,23.20
2019-05-19T07:57:37.462Z,23.20
2019-05-19T08:00:09.338Z,23.30
2019-05-19T08:02:38.325Z,23.30
2019-05-19T08:05:08.522Z,23.50
2019-05-19T08:07:37.508Z,23.50
2019-05-19T08:10:06.995Z,23.50
2019-05-19T08:12:35.736Z,23.60
2019-05-19T08:15:06.317Z,23.70
2019-05-19T08:17:35.140Z,23.80
2019-05-19T08:20:05.883Z,23.80
2019-05-19T08:22:34.731Z,23.90
2019-05-19T08:25:04.363Z,24.00
2019-05-19T08:27:33.115Z,23.90
2019-05-19T08:30:01.782Z,24.10
2019-05-19T08:32:30.570Z,24.40
2019-05-19T08:34:59.255Z,24.70
2019-05-19T08:37:28.014Z,24.90
2019-05-19T08:39:56.681Z,25.30
2019-05-19T08:42:25.505Z,25.50
2019-05-19T08:44:54.246Z,25.50
2019-05-19T08:47:23.001Z,25.60
2019-05-19T08:49:51.690Z,26.00
2019-05-19T08:52:20.443Z,26.00
2019-05-19T08:54:49.133Z,26.20
2019-05-19T08:57:17.874Z,26.30
2019-05-19T08:59:46.622Z,26.40
2019-05-19T09:02:15.371Z,26.60
2019-05-19T09:04:44.042Z,27.00
2019-05-19T09:07:12.767Z,27.10
2019-05-19T09:09:41.526Z,27.40
2019-05-19T09:12:10.343Z,27.60
2019-05-19T09:14:39.031Z,27.80
2019-05-19T09:17:07.774Z,28.00
2019-05-19T09:19:36.517Z,28.10
2019-05-19T09:22:05.346Z,28.20
2019-05-19T09:24:37.191Z,28.50
2019-05-19T09:27:04.483Z,28.40
2019-05-19T09:29:33.231Z,28.70
2019-05-19T09:32:02.021Z,28.70
2019-05-19T09:34:30.784Z,28.50
2019-05-19T09:36:59.589Z,28.60
2019-05-19T09:39:28.337Z,29.20
2019-05-19T09:41:57.091Z,29.40
2019-05-19T09:44:25.830Z,29.90
2019-05-19T09:46:54.573Z,29.70
2019-05-19T09:49:32.955Z,29.40
2019-05-19T09:52:02.795Z,29.80
2019-05-19T09:54:44.100Z,30.10
2019-05-19T09:57:02.104Z,30.50
2019-05-19T09:59:30.846Z,30.70
2019-05-19T10:01:59.682Z,31.00
2019-05-19T10:04:28.498Z,31.00
2019-05-19T10:06:57.278Z,30.90
2019-05-19T10:09:30.747Z,31.30
2019-05-19T10:12:02.039Z,31.60
2019-05-19T10:14:30.856Z,31.60
2019-05-19T10:16:58.837Z,32.20
2019-05-19T10:19:27.509Z,32.20
2019-05-19T10:21:56.324Z,32.50
2019-05-19T10:24:25.380Z,32.60
2019-05-19T10:26:54.209Z,32.50
2019-05-19T10:29:23.038Z,32.80
2019-05-19T10:31:54.400Z,32.30
2019-05-19T10:34:22.367Z,32.30
2019-05-19T10:36:51.230Z,32.90
2019-05-19T10:39:19.856Z,33.00
2019-05-19T10:41:47.750Z,32.90
2019-05-19T10:44:16.564Z,33.40
2019-05-19T10:46:45.339Z,33.00
2019-05-19T10:49:14.075Z,33.20
2019-05-19T10:51:42.898Z,33.70
2019-05-19T10:54:11.636Z,34.30
2019-05-19T10:56:40.382Z,34.10
2019-05-19T10:59:09.131Z,33.80
2019-05-19T11:01:37.886Z,34.00
2019-05-19T11:04:06.713Z,33.60
2019-05-19T11:06:35.454Z,33.80
2019-05-19T11:09:06.198Z,34.10
2019-05-19T11:11:35.014Z,34.00
2019-05-19T11:14:03.753Z,33.70
2019-05-19T11:16:32.505Z,33.30
2019-05-19T11:19:01.240Z,33.80
2019-05-19T11:21:29.907Z,34.80
2019-05-19T11:23:58.643Z,34.80
2019-05-19T11:26:27.477Z,34.50
2019-05-19T11:28:56.225Z,35.20
2019-05-19T11:31:24.915Z,35.80
2019-05-19T11:33:53.657Z,36.10
2019-05-19T11:36:22.462Z,36.30
2019-05-19T11:38:51.239Z,36.90
2019-05-19T11:41:20.065Z,37.00
2019-05-19T11:43:48.791Z,37.50
2019-05-19T11:46:17.540Z,37.40
2019-05-19T11:48:46.277Z,37.40
2019-05-19T11:51:15.022Z,38.10
2019-05-19T11:53:43.755Z,38.10
2019-05-19T11:56:12.434Z,38.50
2019-05-19T11:58:41.163Z,38.70
2019-05-19T12:01:09.911Z,38.90
2019-05-19T12:03:38.658Z,39.10
2019-05-19T12:06:07.307Z,39.70
2019-05-19T12:08:36.066Z,39.60
2019-05-19T12:11:04.790Z,39.90
2019-05-19T12:13:35.058Z,40.30
2019-05-19T12:16:04.090Z,40.40
2019-05-19T12:18:32.825Z,40.40
2019-05-19T12:21:01.587Z,40.50
2019-05-19T12:23:30.402Z,39.90
2019-05-19T12:25:59.127Z,40.30
2019-05-19T12:28:28.131Z,40.10
2019-05-19T12:30:56.878Z,40.30
2019-05-19T12:33:25.701Z,40.20
2019-05-19T12:35:54.443Z,40.50
2019-05-19T12:38:23.103Z,40.70
2019-05-19T12:40:51.839Z,41.00
2019-05-19T12:43:20.657Z,41.30
2019-05-19T12:45:49.507Z,41.60
2019-05-19T12:48:18.330Z,41.60
2019-05-19T12:50:47.068Z,41.30
2019-05-19T12:53:15.741Z,41.50
2019-05-19T12:55:44.482Z,41.30
2019-05-19T12:58:13.166Z,41.90
2019-05-19T13:00:41.913Z,42.20
2019-05-19T13:03:10.680Z,42.00
2019-05-19T13:05:39.432Z,42.00
2019-05-19T13:08:11.371Z,42.00
2019-05-19T13:10:38.654Z,42.40
2019-05-19T13:13:08.188Z,42.20
2019-05-19T13:15:37.006Z,42.20
2019-05-19T13:18:05.753Z,42.40
2019-05-19T13:20:34.507Z,42.20
2019-05-19T13:23:03.170Z,41.80
2019-05-19T13:25:31.913Z,41.40
2019-05-19T13:28:00.598Z,40.80
2019-05-19T13:30:29.405Z,40.70
2019-05-19T13:32:58.222Z,41.30
2019-05-19T13:35:27.030Z,41.00
2019-05-19T13:37:55.708Z,41.10
2019-05-19T13:40:24.530Z,41.10
2019-05-19T13:42:53.253Z,41.30
2019-05-19T13:45:22.219Z,40.90
2019-05-19T13:47:51.022Z,41.30
2019-05-19T13:50:20.264Z,41.00
2019-05-19T13:52:51.202Z,41.10
2019-05-19T13:55:19.418Z,41.70
2019-05-19T13:57:48.199Z,41.60
2019-05-19T14:00:17.926Z,42.00
2019-05-19T14:02:46.754Z,42.10
2019-05-19T14:05:15.601Z,42.10
2019-05-19T14:07:44.331Z,42.20
2019-05-19T14:10:13.966Z,42.40
2019-05-19T14:12:42.706Z,42.00
2019-05-19T14:15:11.517Z,42.20
2019-05-19T14:17:40.270Z,42.00
2019-05-19T14:20:09.286Z,42.80
2019-05-19T14:22:38.074Z,43.20
2019-05-19T14:25:06.924Z,43.20
2019-05-19T14:27:35.740Z,43.40
2019-05-19T14:30:06.280Z,43.60
2019-05-19T14:32:35.020Z,43.50
2019-05-19T14:35:04.751Z,43.00
2019-05-19T14:37:33.505Z,43.30
2019-05-19T14:40:02.402Z,43.70
2019-05-19T14:42:49.015Z,43.20
2019-05-19T14:45:17.846Z,43.10
2019-05-19T14:47:46.592Z,42.80
2019-05-19T14:50:15.337Z,43.30
2019-05-19T14:52:44.085Z,43.10
2019-05-19T14:55:12.920Z,43.00
2019-05-19T14:57:45.300Z,43.30
2019-05-19T15:00:13.886Z,43.60
2019-05-19T15:02:42.694Z,43.50
2019-05-19T15:05:11.815Z,43.40
2019-05-19T15:07:40.550Z,43.60
2019-05-19T15:10:09.866Z,43.60
2019-05-19T15:12:38.584Z,43.60
2019-05-19T15:15:10.632Z,43.40
2019-05-19T15:17:39.308Z,42.80
2019-05-19T15:20:10.229Z,42.90
2019-05-19T15:22:39.001Z,43.20
2019-05-19T15:25:08.413Z,42.90
2019-05-19T15:27:37.339Z,42.80
2019-05-19T15:30:12.867Z,43.00
2019-05-19T15:32:38.362Z,41.80
2019-05-19T15:35:07.168Z,40.60
2019-05-19T15:37:35.917Z,40.10
2019-05-19T15:40:10.141Z,39.30
2019-05-19T15:42:38.908Z,38.90
2019-05-19T15:45:09.108Z,37.50
2019-05-19T15:47:37.838Z,36.90
2019-05-19T15:50:07.954Z,36.00
2019-05-19T15:52:36.698Z,35.60
2019-05-19T15:55:06.417Z,35.20
2019-05-19T15:57:35.364Z,34.60
2019-05-19T16:00:06.278Z,34.30
2019-05-19T16:02:35.096Z,33.90
2019-05-19T16:05:04.992Z,33.70
2019-05-19T16:07:33.827Z,33.60
2019-05-19T16:10:02.996Z,33.10
2019-05-19T16:12:31.912Z,33.90
2019-05-19T16:15:00.664Z,35.70
2019-05-19T16:17:29.431Z,37.20
2019-05-19T16:19:58.175Z,37.90
2019-05-19T16:22:26.839Z,38.80
2019-05-19T16:24:55.527Z,38.90
2019-05-19T16:27:24.350Z,39.70
2019-05-19T16:29:53.022Z,40.10
2019-05-19T16:32:21.757Z,40.60
2019-05-19T16:34:50.529Z,41.00
2019-05-19T16:37:19.329Z,41.30
2019-05-19T16:39:48.017Z,41.30
2019-05-19T16:42:16.819Z,41.40
2019-05-19T16:44:45.497Z,41.50
2019-05-19T16:47:14.314Z,41.30
2019-05-19T16:49:43.015Z,41.20
2019-05-19T16:52:11.833Z,41.30
2019-05-19T16:54:42.715Z,41.50
2019-05-19T16:57:11.643Z,41.60
2019-05-19T16:59:40.374Z,41.40
2019-05-19T17:02:09.191Z,41.40
2019-05-19T17:04:37.933Z,41.40
2019-05-19T17:07:06.687Z,41.40
2019-05-19T17:09:35.417Z,41.10
2019-05-19T17:12:06.783Z,40.80
2019-05-19T17:14:34.644Z,40.50
2019-05-19T17:17:03.383Z,40.00
2019-05-19T17:19:32.073Z,39.70
2019-05-19T17:22:00.803Z,39.50
2019-05-19T17:24:29.474Z,39.20
2019-05-19T17:26:58.294Z,38.90
2019-05-19T17:29:26.969Z,38.50
2019-05-19T17:32:05.657Z,37.90
2019-05-19T17:34:26.099Z,37.30
2019-05-19T17:36:54.842Z,36.80
2019-05-19T17:39:23.602Z,36.20
2019-05-19T17:41:52.349Z,35.90
2019-05-19T17:44:21.167Z,35.70
2019-05-19T17:46:49.998Z,35.60
2019-05-19T17:49:18.810Z,35.10
2019-05-19T17:51:49.263Z,34.60
2019-05-19T17:54:20.169Z,33.90
2019-05-19T17:56:49.883Z,33.00
2019-05-19T17:59:18.794Z,32.50
2019-05-19T18:01:47.635Z,32.10
2019-05-19T18:04:16.505Z,31.60
2019-05-19T18:06:45.335Z,31.30
2019-05-19T18:09:14.227Z,31.00
2019-05-19T18:11:43.099Z,30.70
2019-05-19T18:14:11.925Z,30.40
2019-05-19T18:16:40.626Z,30.10
2019-05-19T18:19:09.362Z,29.80
2019-05-19T18:21:39.299Z,29.60
2019-05-19T18:24:08.127Z,29.50
2019-05-19T18:26:36.881Z,29.20
2019-05-19T18:29:05.724Z,29.00
2019-05-19T18:31:34.481Z,28.80
2019-05-19T18:34:03.315Z,28.90
2019-05-19T18:36:32.082Z,28.60
2019-05-19T18:39:00.845Z,28.50
2019-05-19T18:41:29.259Z,28.30
2019-05-19T18:43:58.148Z,28.10
2019-05-19T18:46:26.225Z,28.00
2019-05-19T18:48:56.038Z,27.70
2019-05-19T18:51:24.826Z,27.50
2019-05-19T18:53:55.663Z,27.50
2019-05-19T18:56:24.413Z,27.50
2019-05-19T18:58:52.590Z,27.30
2019-05-19T19:01:20.509Z,27.20
2019-05-19T19:03:48.970Z,27.10
2019-05-19T19:06:16.839Z,26.90
2019-05-19T19:08:45.047Z,26.70
2019-05-19T19:11:12.930Z,26.60
2019-05-19T19:13:40.865Z,26.50
2019-05-19T19:16:08.892Z,26.40
2019-05-19T19:18:36.752Z,26.30
2019-05-19T19:21:04.718Z,26.20
2019-05-19T19:23:32.685Z,26.20
2019-05-19T19:26:00.619Z,26.10
2019-05-19T19:28:28.525Z,26.00
2019-05-19T19:30:56.519Z,25.90
2019-05-19T19:33:24.444Z,25.70
2019-05-19T19:35:52.830Z,25.60
2019-05-19T19:38:21.461Z,25.50
2019-05-19T19:40:49.361Z,25.50
2019-05-19T19:43:17.314Z,25.40
2019-05-19T19:45:45.254Z,25.20
2019-05-19T19:48:13.171Z,25.10
2019-05-19T19:50:41.102Z,25.10
2019-05-19T19:53:11.241Z,25.00
2019-05-19T19:55:39.139Z,25.00
2019-05-19T19:58:07.120Z,24.80
2019-05-19T20:00:36.542Z,24.70
2019-05-19T20:03:07.858Z,24.60
2019-05-19T20:05:35.808Z,24.60
2019-05-19T20:08:04.011Z,24.50
2019-05-19T20:10:31.908Z,24.40
2019-05-19T20:12:59.812Z,24.40
2019-05-19T20:15:27.775Z,24.30
2019-05-19T20:17:55.757Z,24.20
2019-05-19T20:20:24.251Z,24.10
2019-05-19T20:22:52.302Z,24.10
2019-05-19T20:25:20.235Z,23.90
2019-05-19T20:27:48.141Z,23.90
2019-05-19T20:30:16.194Z,23.90
2019-05-19T20:32:44.057Z,23.80
2019-05-19T20:35:12.019Z,23.70
2019-05-19T20:37:40.004Z,23.60
2019-05-19T20:40:09.447Z,23.60
2019-05-19T20:42:37.454Z,23.50
2019-05-19T20:45:05.474Z,23.50
2019-05-19T20:47:33.402Z,23.40
2019-05-19T20:50:01.338Z,23.40
2019-05-19T20:52:29.248Z,23.30
2019-05-19T20:54:57.150Z,23.20
2019-05-19T20:57:25.083Z,23.20
2019-05-19T20:59:52.997Z,23.20
2019-05-19T21:02:20.884Z,23.20
2019-05-19T21:04:48.863Z,23.00
2019-05-19T21:07:16.745Z,23.00
2019-05-19T21:09:44.718Z,23.00
2019-05-19T21:12:12.675Z,22.90
2019-05-19T21:14:40.584Z,22.90
2019-05-19T21:17:08.493Z,22.90
2019-05-19T21:19:36.393Z,22.90
2019-05-19T21:22:04.303Z,22.70
2019-05-19T21:24:32.185Z,22.60
2019-05-19T21:27:00.151Z,22.60
2019-05-19T21:29:28.113Z,22.60
2019-05-19T21:31:56.089Z,22.50
2019-05-19T21:34:24.064Z,22.40
2019-05-19T21:36:52.147Z,22.40
2019-05-19T21:39:20.011Z,22.40
2019-05-19T21:41:47.851Z,22.30
2019-05-19T21:44:15.842Z,22.30
2019-05-19T21:46:43.820Z,22.30
2019-05-19T21:49:11.705Z,22.20
2019-05-19T21:51:39.674Z,22.20
2019-05-19T21:54:07.596Z,22.10
2019-05-19T21:56:35.505Z,22.10
2019-05-19T21:59:03.438Z,22.00
2019-05-19T22:01:31.407Z,22.00
2019-05-19T22:03:59.294Z,22.00
2019-05-19T22:06:28.763Z,21.90
2019-05-19T22:08:56.742Z,21.80
2019-05-19T22:11:24.713Z,21.80
2019-05-19T22:13:52.618Z,21.70
2019-05-19T22:16:20.522Z,21.70
2019-05-19T22:18:48.443Z,21.60
2019-05-19T22:21:16.282Z,21.60
2019-05-19T22:23:44.259Z,21.60
2019-05-19T22:26:12.171Z,21.60
2019-05-19T22:28:40.137Z,21.50
2019-05-19T22:31:08.115Z,21.50
2019-05-19T22:33:36.019Z,21.40
2019-05-19T22:36:03.943Z,21.40
2019-05-19T22:38:31.867Z,21.40
2019-05-19T22:40:59.811Z,21.30
2019-05-19T22:43:27.785Z,21.30
2019-05-19T22:45:55.675Z,21.20
2019-05-19T22:48:23.587Z,21.20
2019-05-19T22:50:51.480Z,21.20
2019-05-19T22:53:19.442Z,21.20
2019-05-19T22:55:47.421Z,21.00
2019-05-19T22:58:15.333Z,21.00
2019-05-19T23:00:43.393Z,21.00
2019-05-19T23:03:11.320Z,21.00
2019-05-19T23:05:39.206Z,20.90
2019-05-19T23:08:07.114Z,21.00
2019-05-19T23:10:35.014Z,21.00
2019-05-19T23:13:02.911Z,21.00
2019-05-19T23:15:30.891Z,21.00
2019-05-19T23:17:58.860Z,20.90
2019-05-19T23:20:26.838Z,20.90
2019-05-19T23:22:54.760Z,20.80
2019-05-19T23:25:22.669Z,20.80
2019-05-19T23:27:50.671Z,20.70
2019-05-19T23:30:18.675Z,20.80
2019-05-19T23:32:46.630Z,20.80
2019-05-19T23:35:14.540Z,20.70
2019-05-19T23:37:42.532Z,20.70
2019-05-19T23:40:10.594Z,20.70
2019-05-19T23:42:38.509Z,20.60
2019-05-19T23:45:06.414Z,20.60
2019-05-19T23:47:34.318Z,20.50
2019-05-19T23:50:02.316Z,20.50
2019-05-19T23:52:30.307Z,20.50
2019-05-19T23:54:58.287Z,20.40
2019-05-19T23:57:26.185Z,20.40
2019-05-19T23:59:54.146Z,20.40
